sensor_id;sensor_type;location;lat;lon;timestamp;P1;durP1;ratioP1;P2;durP2;ratioP2
7383;SDS011;3733;47.994;8.820;2023-05-16T00:01:48;20.30;;;7.50;;
7383;SDS011;3733;47.994;8.820;2023-05-16T00:04:13;9.50;;;6.63;;
7383;SDS011;3733;47.994;8.820;2023-05-16T00:06:39;5.70;;;4.67;;
7383;SDS011;3733;47.994;8.820;2023-05-16T00:09:05;7.60;;;5.10;;
7383;SDS011;3733;47.994;8.820;2023-05-16T00:11:31;7.30;;;5.07;;
7383;SDS011;3733;47.994;8.820;2023-05-16T00:13:56;7.10;;;5.50;;
7383;SDS011;3733;47.994;8.820;2023-05-16T00:16:22;10.10;;;5.00;;
7383;SDS011;3733;47.994;8.820;2023-05-16T00:18:49;13.47;;;5.60;;
7383;SDS011;3733;47.994;8.820;2023-05-16T00:21:17;7.43;;;5.50;;
7383;SDS011;3733;47.994;8.820;2023-05-16T00:23:43;10.07;;;5.43;;
7383;SDS011;3733;47.994;8.820;2023-05-16T00:26:08;9.90;;;5.70;;
7383;SDS011;3733;47.994;8.820;2023-05-16T00:28:34;9.40;;;5.07;;
7383;SDS011;3733;47.994;8.820;2023-05-16T00:31:00;11.57;;;6.23;;
7383;SDS011;3733;47.994;8.820;2023-05-16T00:33:25;10.07;;;6.80;;
7383;SDS011;3733;47.994;8.820;2023-05-16T00:35:51;15.47;;;6.57;;
7383;SDS011;3733;47.994;8.820;2023-05-16T00:38:17;27.17;;;6.07;;
7383;SDS011;3733;47.994;8.820;2023-05-16T00:40:43;39.73;;;6.40;;
7383;SDS011;3733;47.994;8.820;2023-05-16T00:43:10;23.67;;;6.10;;
7383;SDS011;3733;47.994;8.820;2023-05-16T00:45:36;7.87;;;5.33;;
7383;SDS011;3733;47.994;8.820;2023-05-16T00:48:01;12.37;;;5.67;;
7383;SDS011;3733;47.994;8.820;2023-05-16T00:50:27;16.90;;;6.80;;
7383;SDS011;3733;47.994;8.820;2023-05-16T00:52:53;37.63;;;7.90;;
7383;SDS011;3733;47.994;8.820;2023-05-16T00:55:19;15.60;;;6.50;;
7383;SDS011;3733;47.994;8.820;2023-05-16T00:57:45;14.87;;;6.43;;
7383;SDS011;3733;47.994;8.820;2023-05-16T01:00:11;15.83;;;6.57;;
7383;SDS011;3733;47.994;8.820;2023-05-16T01:02:39;13.67;;;6.27;;
7383;SDS011;3733;47.994;8.820;2023-05-16T01:05:05;18.77;;;7.40;;
7383;SDS011;3733;47.994;8.820;2023-05-16T01:07:32;8.20;;;5.97;;
7383;SDS011;3733;47.994;8.820;2023-05-16T01:09:59;17.80;;;6.93;;
7383;SDS011;3733;47.994;8.820;2023-05-16T01:15:07;8.07;;;4.97;;
7383;SDS011;3733;47.994;8.820;2023-05-16T01:20:42;3.90;;;3.60;;
7383;SDS011;3733;47.994;8.820;2023-05-16T01:26:22;4.30;;;3.63;;
7383;SDS011;3733;47.994;8.820;2023-05-16T01:28:50;4.37;;;3.60;;
7383;SDS011;3733;47.994;8.820;2023-05-16T01:31:16;5.70;;;3.90;;
7383;SDS011;3733;47.994;8.820;2023-05-16T01:33:42;4.60;;;3.97;;
7383;SDS011;3733;47.994;8.820;2023-05-16T01:39:10;7.57;;;4.40;;
7383;SDS011;3733;47.994;8.820;2023-05-16T01:44:15;7.83;;;5.20;;
7383;SDS011;3733;47.994;8.820;2023-05-16T01:47:01;12.63;;;6.83;;
7383;SDS011;3733;47.994;8.820;2023-05-16T01:49:34;9.17;;;6.23;;
7383;SDS011;3733;47.994;8.820;2023-05-16T01:52:07;11.60;;;7.07;;
7383;SDS011;3733;47.994;8.820;2023-05-16T01:54:36;18.40;;;6.73;;
7383;SDS011;3733;47.994;8.820;2023-05-16T01:57:03;17.57;;;7.30;;
7383;SDS011;3733;47.994;8.820;2023-05-16T01:59:32;10.80;;;6.70;;
7383;SDS011;3733;47.994;8.820;2023-05-16T02:01:58;11.50;;;7.60;;
7383;SDS011;3733;47.994;8.820;2023-05-16T02:04:24;9.63;;;6.70;;
7383;SDS011;3733;47.994;8.820;2023-05-16T02:06:50;12.73;;;7.37;;
7383;SDS011;3733;47.994;8.820;2023-05-16T02:09:16;9.80;;;7.10;;
7383;SDS011;3733;47.994;8.820;2023-05-16T02:11:42;13.30;;;6.73;;
7383;SDS011;3733;47.994;8.820;2023-05-16T02:14:07;11.93;;;6.93;;
7383;SDS011;3733;47.994;8.820;2023-05-16T02:16:33;9.73;;;6.70;;
7383;SDS011;3733;47.994;8.820;2023-05-16T02:19:00;13.37;;;7.70;;
7383;SDS011;3733;47.994;8.820;2023-05-16T02:21:25;11.37;;;6.57;;
7383;SDS011;3733;47.994;8.820;2023-05-16T02:23:51;10.23;;;7.00;;
7383;SDS011;3733;47.994;8.820;2023-05-16T02:26:17;9.97;;;6.57;;
7383;SDS011;3733;47.994;8.820;2023-05-16T02:28:42;11.90;;;7.40;;
7383;SDS011;3733;47.994;8.820;2023-05-16T02:31:08;9.60;;;6.60;;
7383;SDS011;3733;47.994;8.820;2023-05-16T02:33:34;13.13;;;7.13;;
7383;SDS011;3733;47.994;8.820;2023-05-16T02:35:59;10.50;;;7.40;;
7383;SDS011;3733;47.994;8.820;2023-05-16T02:38:25;11.57;;;7.00;;
7383;SDS011;3733;47.994;8.820;2023-05-16T02:40:51;11.40;;;6.70;;
7383;SDS011;3733;47.994;8.820;2023-05-16T02:43:17;11.27;;;7.80;;
7383;SDS011;3733;47.994;8.820;2023-05-16T02:45:42;11.60;;;7.77;;
7383;SDS011;3733;47.994;8.820;2023-05-16T02:48:08;10.40;;;7.20;;
7383;SDS011;3733;47.994;8.820;2023-05-16T02:50:34;11.17;;;7.90;;
7383;SDS011;3733;47.994;8.820;2023-05-16T02:53:00;23.87;;;6.90;;
7383;SDS011;3733;47.994;8.820;2023-05-16T02:55:26;12.53;;;7.70;;
7383;SDS011;3733;47.994;8.820;2023-05-16T02:57:52;14.47;;;8.77;;
7383;SDS011;3733;47.994;8.820;2023-05-16T03:00:18;12.97;;;8.33;;
7383;SDS011;3733;47.994;8.820;2023-05-16T03:02:44;13.40;;;7.30;;
7383;SDS011;3733;47.994;8.820;2023-05-16T03:05:10;17.20;;;8.07;;
7383;SDS011;3733;47.994;8.820;2023-05-16T03:07:36;12.03;;;7.70;;
7383;SDS011;3733;47.994;8.820;2023-05-16T03:10:03;14.03;;;8.23;;
7383;SDS011;3733;47.994;8.820;2023-05-16T03:12:28;8.43;;;6.70;;
7383;SDS011;3733;47.994;8.820;2023-05-16T03:14:54;13.33;;;8.13;;
7383;SDS011;3733;47.994;8.820;2023-05-16T03:17:20;14.63;;;6.90;;
7383;SDS011;3733;47.994;8.820;2023-05-16T03:19:45;12.60;;;8.50;;
7383;SDS011;3733;47.994;8.820;2023-05-16T03:22:11;11.80;;;7.77;;
7383;SDS011;3733;47.994;8.820;2023-05-16T03:24:37;15.50;;;8.10;;
7383;SDS011;3733;47.994;8.820;2023-05-16T03:27:03;16.90;;;9.27;;
7383;SDS011;3733;47.994;8.820;2023-05-16T03:29:29;18.97;;;9.30;;
7383;SDS011;3733;47.994;8.820;2023-05-16T03:31:55;15.43;;;8.87;;
7383;SDS011;3733;47.994;8.820;2023-05-16T03:34:21;17.20;;;9.50;;
7383;SDS011;3733;47.994;8.820;2023-05-16T03:36:47;14.00;;;8.53;;
7383;SDS011;3733;47.994;8.820;2023-05-16T03:39:14;15.93;;;9.63;;
7383;SDS011;3733;47.994;8.820;2023-05-16T03:41:40;17.33;;;9.70;;
7383;SDS011;3733;47.994;8.820;2023-05-16T03:44:06;13.87;;;9.27;;
7383;SDS011;3733;47.994;8.820;2023-05-16T03:46:31;22.70;;;9.37;;
7383;SDS011;3733;47.994;8.820;2023-05-16T03:48:57;15.70;;;9.80;;
7383;SDS011;3733;47.994;8.820;2023-05-16T03:51:23;17.03;;;10.63;;
7383;SDS011;3733;47.994;8.820;2023-05-16T03:53:49;18.73;;;10.93;;
7383;SDS011;3733;47.994;8.820;2023-05-16T03:56:14;16.97;;;9.27;;
7383;SDS011;3733;47.994;8.820;2023-05-16T03:58:40;16.70;;;10.73;;
7383;SDS011;3733;47.994;8.820;2023-05-16T04:01:06;13.93;;;8.70;;
7383;SDS011;3733;47.994;8.820;2023-05-16T04:03:31;16.10;;;10.40;;
7383;SDS011;3733;47.994;8.820;2023-05-16T04:05:58;14.80;;;9.63;;
7383;SDS011;3733;47.994;8.820;2023-05-16T04:08:23;12.23;;;8.53;;
7383;SDS011;3733;47.994;8.820;2023-05-16T04:10:49;14.70;;;9.90;;
7383;SDS011;3733;47.994;8.820;2023-05-16T04:13:15;15.43;;;10.67;;
7383;SDS011;3733;47.994;8.820;2023-05-16T04:15:41;26.10;;;12.40;;
7383;SDS011;3733;47.994;8.820;2023-05-16T04:18:07;25.00;;;12.73;;
7383;SDS011;3733;47.994;8.820;2023-05-16T04:20:33;19.10;;;12.40;;
7383;SDS011;3733;47.994;8.820;2023-05-16T04:22:59;23.40;;;14.30;;
7383;SDS011;3733;47.994;8.820;2023-05-16T04:25:25;25.27;;;15.03;;
7383;SDS011;3733;47.994;8.820;2023-05-16T04:27:50;32.37;;;17.30;;
7383;SDS011;3733;47.994;8.820;2023-05-16T04:30:17;31.40;;;17.27;;
7383;SDS011;3733;47.994;8.820;2023-05-16T04:32:43;31.90;;;19.23;;
7383;SDS011;3733;47.994;8.820;2023-05-16T04:35:08;32.73;;;19.40;;
7383;SDS011;3733;47.994;8.820;2023-05-16T04:37:35;41.00;;;20.50;;
7383;SDS011;3733;47.994;8.820;2023-05-16T04:40:01;38.80;;;21.93;;
7383;SDS011;3733;47.994;8.820;2023-05-16T04:42:27;34.97;;;20.70;;
7383;SDS011;3733;47.994;8.820;2023-05-16T04:44:52;38.57;;;21.00;;
7383;SDS011;3733;47.994;8.820;2023-05-16T04:47:18;38.70;;;22.90;;
7383;SDS011;3733;47.994;8.820;2023-05-16T04:49:43;38.70;;;21.70;;
7383;SDS011;3733;47.994;8.820;2023-05-16T04:52:09;39.70;;;21.03;;
7383;SDS011;3733;47.994;8.820;2023-05-16T04:54:36;40.90;;;22.23;;
7383;SDS011;3733;47.994;8.820;2023-05-16T04:57:02;36.87;;;21.33;;
7383;SDS011;3733;47.994;8.820;2023-05-16T04:59:28;43.87;;;23.60;;
7383;SDS011;3733;47.994;8.820;2023-05-16T05:01:53;49.10;;;23.97;;
7383;SDS011;3733;47.994;8.820;2023-05-16T05:04:19;51.60;;;25.63;;
7383;SDS011;3733;47.994;8.820;2023-05-16T05:06:45;52.47;;;25.47;;
7383;SDS011;3733;47.994;8.820;2023-05-16T05:09:10;46.43;;;24.90;;
7383;SDS011;3733;47.994;8.820;2023-05-16T05:11:36;50.33;;;27.13;;
7383;SDS011;3733;47.994;8.820;2023-05-16T05:14:02;60.00;;;27.00;;
7383;SDS011;3733;47.994;8.820;2023-05-16T05:16:27;54.17;;;26.13;;
7383;SDS011;3733;47.994;8.820;2023-05-16T05:18:53;55.47;;;27.20;;
7383;SDS011;3733;47.994;8.820;2023-05-16T05:21:19;55.63;;;28.37;;
7383;SDS011;3733;47.994;8.820;2023-05-16T05:23:46;56.07;;;27.70;;
7383;SDS011;3733;47.994;8.820;2023-05-16T05:26:13;58.57;;;28.07;;
7383;SDS011;3733;47.994;8.820;2023-05-16T05:28:39;58.47;;;30.20;;
7383;SDS011;3733;47.994;8.820;2023-05-16T05:31:05;53.70;;;27.97;;
7383;SDS011;3733;47.994;8.820;2023-05-16T05:33:32;64.97;;;30.27;;
7383;SDS011;3733;47.994;8.820;2023-05-16T05:35:57;60.67;;;30.33;;
7383;SDS011;3733;47.994;8.820;2023-05-16T05:38:23;55.00;;;27.90;;
7383;SDS011;3733;47.994;8.820;2023-05-16T05:40:49;60.27;;;29.20;;
7383;SDS011;3733;47.994;8.820;2023-05-16T05:43:15;63.60;;;29.80;;
7383;SDS011;3733;47.994;8.820;2023-05-16T05:45:41;58.10;;;28.67;;
7383;SDS011;3733;47.994;8.820;2023-05-16T05:48:07;64.20;;;28.40;;
7383;SDS011;3733;47.994;8.820;2023-05-16T05:50:33;63.60;;;30.63;;
7383;SDS011;3733;47.994;8.820;2023-05-16T05:52:58;64.60;;;31.30;;
7383;SDS011;3733;47.994;8.820;2023-05-16T05:55:24;67.30;;;30.30;;
7383;SDS011;3733;47.994;8.820;2023-05-16T05:57:50;59.27;;;30.37;;
7383;SDS011;3733;47.994;8.820;2023-05-16T06:00:16;57.63;;;27.60;;
7383;SDS011;3733;47.994;8.820;2023-05-16T06:02:42;61.27;;;28.90;;
7383;SDS011;3733;47.994;8.820;2023-05-16T06:05:07;61.67;;;29.23;;
7383;SDS011;3733;47.994;8.820;2023-05-16T06:07:33;55.10;;;27.47;;
7383;SDS011;3733;47.994;8.820;2023-05-16T06:09:59;57.30;;;27.47;;
7383;SDS011;3733;47.994;8.820;2023-05-16T06:12:28;58.10;;;28.97;;
7383;SDS011;3733;47.994;8.820;2023-05-16T06:14:54;54.43;;;29.50;;
7383;SDS011;3733;47.994;8.820;2023-05-16T06:17:20;60.17;;;27.70;;
7383;SDS011;3733;47.994;8.820;2023-05-16T06:19:45;55.60;;;27.57;;
7383;SDS011;3733;47.994;8.820;2023-05-16T06:22:11;62.40;;;27.73;;
7383;SDS011;3733;47.994;8.820;2023-05-16T06:24:37;55.87;;;27.20;;
7383;SDS011;3733;47.994;8.820;2023-05-16T06:27:02;57.43;;;28.13;;
7383;SDS011;3733;47.994;8.820;2023-05-16T06:29:28;60.50;;;28.07;;
7383;SDS011;3733;47.994;8.820;2023-05-16T06:31:53;56.90;;;28.50;;
7383;SDS011;3733;47.994;8.820;2023-05-16T06:34:19;54.60;;;28.27;;
7383;SDS011;3733;47.994;8.820;2023-05-16T06:36:51;62.47;;;28.93;;
7383;SDS011;3733;47.994;8.820;2023-05-16T06:39:17;66.93;;;28.73;;
7383;SDS011;3733;47.994;8.820;2023-05-16T06:41:42;65.00;;;30.50;;
7383;SDS011;3733;47.994;8.820;2023-05-16T06:44:08;78.60;;;31.40;;
7383;SDS011;3733;47.994;8.820;2023-05-16T06:46:33;56.80;;;29.37;;
7383;SDS011;3733;47.994;8.820;2023-05-16T06:48:59;56.53;;;28.37;;
7383;SDS011;3733;47.994;8.820;2023-05-16T06:51:25;54.70;;;26.63;;
7383;SDS011;3733;47.994;8.820;2023-05-16T06:53:51;49.17;;;25.93;;
7383;SDS011;3733;47.994;8.820;2023-05-16T06:56:16;59.40;;;27.03;;
7383;SDS011;3733;47.994;8.820;2023-05-16T06:58:42;49.70;;;25.80;;
7383;SDS011;3733;47.994;8.820;2023-05-16T07:01:08;49.00;;;26.00;;
7383;SDS011;3733;47.994;8.820;2023-05-16T07:03:33;51.67;;;25.57;;
7383;SDS011;3733;47.994;8.820;2023-05-16T07:05:59;46.40;;;24.10;;
7383;SDS011;3733;47.994;8.820;2023-05-16T07:08:25;43.67;;;23.83;;
7383;SDS011;3733;47.994;8.820;2023-05-16T07:10:50;54.93;;;25.57;;
7383;SDS011;3733;47.994;8.820;2023-05-16T07:13:16;42.20;;;23.30;;
7383;SDS011;3733;47.994;8.820;2023-05-16T07:15:41;42.50;;;23.47;;
7383;SDS011;3733;47.994;8.820;2023-05-16T07:18:07;49.10;;;24.40;;
7383;SDS011;3733;47.994;8.820;2023-05-16T07:20:32;42.90;;;23.60;;
7383;SDS011;3733;47.994;8.820;2023-05-16T07:22:58;43.30;;;23.67;;
7383;SDS011;3733;47.994;8.820;2023-05-16T07:25:24;42.43;;;23.57;;
7383;SDS011;3733;47.994;8.820;2023-05-16T07:27:50;42.20;;;24.93;;
7383;SDS011;3733;47.994;8.820;2023-05-16T07:30:15;44.33;;;24.93;;
7383;SDS011;3733;47.994;8.820;2023-05-16T07:32:41;46.90;;;23.50;;
7383;SDS011;3733;47.994;8.820;2023-05-16T07:35:07;41.10;;;23.43;;
7383;SDS011;3733;47.994;8.820;2023-05-16T07:37:34;49.73;;;24.30;;
7383;SDS011;3733;47.994;8.820;2023-05-16T07:40:00;49.83;;;25.70;;
7383;SDS011;3733;47.994;8.820;2023-05-16T07:42:27;47.50;;;24.27;;
7383;SDS011;3733;47.994;8.820;2023-05-16T07:44:53;42.10;;;24.73;;
7383;SDS011;3733;47.994;8.820;2023-05-16T07:47:19;38.43;;;21.80;;
7383;SDS011;3733;47.994;8.820;2023-05-16T07:49:44;40.43;;;23.17;;
7383;SDS011;3733;47.994;8.820;2023-05-16T07:52:10;39.80;;;23.33;;
7383;SDS011;3733;47.994;8.820;2023-05-16T07:54:36;47.50;;;22.90;;
7383;SDS011;3733;47.994;8.820;2023-05-16T07:57:02;38.37;;;23.00;;
7383;SDS011;3733;47.994;8.820;2023-05-16T07:59:28;41.83;;;22.90;;
7383;SDS011;3733;47.994;8.820;2023-05-16T08:01:53;32.87;;;20.90;;
7383;SDS011;3733;47.994;8.820;2023-05-16T08:04:20;38.43;;;21.13;;
7383;SDS011;3733;47.994;8.820;2023-05-16T08:06:46;38.20;;;21.97;;
7383;SDS011;3733;47.994;8.820;2023-05-16T08:09:11;36.47;;;21.17;;
7383;SDS011;3733;47.994;8.820;2023-05-16T08:11:37;36.60;;;20.53;;
7383;SDS011;3733;47.994;8.820;2023-05-16T08:14:04;35.70;;;20.07;;
7383;SDS011;3733;47.994;8.820;2023-05-16T08:16:29;34.70;;;20.80;;
7383;SDS011;3733;47.994;8.820;2023-05-16T08:18:55;37.50;;;20.30;;
7383;SDS011;3733;47.994;8.820;2023-05-16T08:21:21;33.97;;;20.80;;
7383;SDS011;3733;47.994;8.820;2023-05-16T08:23:46;38.40;;;22.30;;
7383;SDS011;3733;47.994;8.820;2023-05-16T08:26:12;37.07;;;21.30;;
7383;SDS011;3733;47.994;8.820;2023-05-16T08:28:37;38.00;;;21.90;;
7383;SDS011;3733;47.994;8.820;2023-05-16T08:31:03;50.13;;;21.63;;
7383;SDS011;3733;47.994;8.820;2023-05-16T08:33:29;35.07;;;21.53;;
7383;SDS011;3733;47.994;8.820;2023-05-16T08:35:54;40.70;;;21.50;;
7383;SDS011;3733;47.994;8.820;2023-05-16T08:38:20;35.27;;;20.50;;
7383;SDS011;3733;47.994;8.820;2023-05-16T08:40:46;33.17;;;19.37;;
7383;SDS011;3733;47.994;8.820;2023-05-16T08:43:11;37.87;;;19.93;;
7383;SDS011;3733;47.994;8.820;2023-05-16T08:45:39;36.33;;;20.90;;
7383;SDS011;3733;47.994;8.820;2023-05-16T08:48:05;30.77;;;18.27;;
7383;SDS011;3733;47.994;8.820;2023-05-16T08:50:31;36.17;;;19.83;;
7383;SDS011;3733;47.994;8.820;2023-05-16T08:52:59;36.73;;;20.50;;
7383;SDS011;3733;47.994;8.820;2023-05-16T08:55:31;36.57;;;20.30;;
7383;SDS011;3733;47.994;8.820;2023-05-16T08:57:57;32.50;;;19.13;;
7383;SDS011;3733;47.994;8.820;2023-05-16T09:00:24;33.90;;;20.00;;
7383;SDS011;3733;47.994;8.820;2023-05-16T09:02:51;35.07;;;19.23;;
7383;SDS011;3733;47.994;8.820;2023-05-16T09:05:17;33.47;;;19.80;;
7383;SDS011;3733;47.994;8.820;2023-05-16T09:07:43;30.03;;;19.50;;
7383;SDS011;3733;47.994;8.820;2023-05-16T09:10:10;34.63;;;19.10;;
7383;SDS011;3733;47.994;8.820;2023-05-16T09:12:38;35.67;;;19.63;;
7383;SDS011;3733;47.994;8.820;2023-05-16T09:15:05;29.00;;;17.60;;
7383;SDS011;3733;47.994;8.820;2023-05-16T09:17:38;29.20;;;16.87;;
7383;SDS011;3733;47.994;8.820;2023-05-16T09:20:10;30.73;;;17.60;;
7383;SDS011;3733;47.994;8.820;2023-05-16T09:22:48;26.83;;;15.43;;
7383;SDS011;3733;47.994;8.820;2023-05-16T09:25:19;27.57;;;15.40;;
7383;SDS011;3733;47.994;8.820;2023-05-16T09:27:46;32.40;;;16.73;;
7383;SDS011;3733;47.994;8.820;2023-05-16T09:30:13;32.37;;;17.50;;
7383;SDS011;3733;47.994;8.820;2023-05-16T09:32:43;31.03;;;18.10;;
7383;SDS011;3733;47.994;8.820;2023-05-16T09:35:10;38.87;;;21.27;;
7383;SDS011;3733;47.994;8.820;2023-05-16T09:37:47;40.53;;;20.37;;
7383;SDS011;3733;47.994;8.820;2023-05-16T09:40:13;47.67;;;22.07;;
7383;SDS011;3733;47.994;8.820;2023-05-16T09:42:40;38.33;;;22.33;;
7383;SDS011;3733;47.994;8.820;2023-05-16T09:45:10;37.90;;;20.90;;
7383;SDS011;3733;47.994;8.820;2023-05-16T09:47:38;37.27;;;21.07;;
7383;SDS011;3733;47.994;8.820;2023-05-16T09:50:10;34.77;;;19.13;;
7383;SDS011;3733;47.994;8.820;2023-05-16T09:52:39;36.23;;;19.43;;
7383;SDS011;3733;47.994;8.820;2023-05-16T09:55:08;32.77;;;17.63;;
7383;SDS011;3733;47.994;8.820;2023-05-16T09:57:37;24.57;;;14.60;;
7383;SDS011;3733;47.994;8.820;2023-05-16T10:00:09;21.70;;;13.73;;
7383;SDS011;3733;47.994;8.820;2023-05-16T10:02:36;17.40;;;10.90;;
7383;SDS011;3733;47.994;8.820;2023-05-16T10:05:03;19.40;;;12.03;;
7383;SDS011;3733;47.994;8.820;2023-05-16T10:07:30;20.03;;;12.10;;
7383;SDS011;3733;47.994;8.820;2023-05-16T10:09:58;18.10;;;10.67;;
7383;SDS011;3733;47.994;8.820;2023-05-16T10:12:29;17.30;;;11.27;;
7383;SDS011;3733;47.994;8.820;2023-05-16T10:14:56;17.40;;;10.00;;
7383;SDS011;3733;47.994;8.820;2023-05-16T10:17:27;16.70;;;11.00;;
7383;SDS011;3733;47.994;8.820;2023-05-16T10:19:56;24.37;;;11.07;;
7383;SDS011;3733;47.994;8.820;2023-05-16T10:22:25;19.03;;;11.07;;
7383;SDS011;3733;47.994;8.820;2023-05-16T10:25:35;19.03;;;11.03;;
7383;SDS011;3733;47.994;8.820;2023-05-16T10:27:48;17.90;;;11.50;;
7383;SDS011;3733;47.994;8.820;2023-05-16T10:30:15;17.00;;;11.23;;
7383;SDS011;3733;47.994;8.820;2023-05-16T10:32:41;18.23;;;11.10;;
7383;SDS011;3733;47.994;8.820;2023-05-16T10:35:08;19.33;;;10.87;;
7383;SDS011;3733;47.994;8.820;2023-05-16T10:37:34;14.10;;;9.57;;
7383;SDS011;3733;47.994;8.820;2023-05-16T10:40:00;11.93;;;7.00;;
7383;SDS011;3733;47.994;8.820;2023-05-16T10:42:30;14.07;;;8.73;;
7383;SDS011;3733;47.994;8.820;2023-05-16T10:45:18;14.67;;;9.57;;
7383;SDS011;3733;47.994;8.820;2023-05-16T10:47:57;12.73;;;9.60;;
7383;SDS011;3733;47.994;8.820;2023-05-16T10:50:33;13.03;;;9.47;;
7383;SDS011;3733;47.994;8.820;2023-05-16T10:55:37;15.10;;;11.13;;
7383;SDS011;3733;47.994;8.820;2023-05-16T10:58:03;20.73;;;12.77;;
7383;SDS011;3733;47.994;8.820;2023-05-16T11:00:29;25.17;;;13.23;;
7383;SDS011;3733;47.994;8.820;2023-05-16T11:03:03;20.10;;;12.90;;
7383;SDS011;3733;47.994;8.820;2023-05-16T11:05:30;20.27;;;12.93;;
7383;SDS011;3733;47.994;8.820;2023-05-16T11:08:02;17.23;;;11.77;;
7383;SDS011;3733;47.994;8.820;2023-05-16T11:10:30;22.37;;;13.30;;
7383;SDS011;3733;47.994;8.820;2023-05-16T11:12:57;21.73;;;13.43;;
7383;SDS011;3733;47.994;8.820;2023-05-16T11:15:30;24.37;;;15.13;;
7383;SDS011;3733;47.994;8.820;2023-05-16T11:18:07;25.63;;;13.90;;
7383;SDS011;3733;47.994;8.820;2023-05-16T11:20:40;19.27;;;13.03;;
7383;SDS011;3733;47.994;8.820;2023-05-16T11:25:44;22.63;;;12.80;;
7383;SDS011;3733;47.994;8.820;2023-05-16T11:28:11;20.67;;;12.93;;
7383;SDS011;3733;47.994;8.820;2023-05-16T11:30:41;21.33;;;13.00;;
7383;SDS011;3733;47.994;8.820;2023-05-16T11:33:15;26.20;;;13.97;;
7383;SDS011;3733;47.994;8.820;2023-05-16T11:35:41;19.90;;;13.00;;
7383;SDS011;3733;47.994;8.820;2023-05-16T11:38:11;24.37;;;13.57;;
7383;SDS011;3733;47.994;8.820;2023-05-16T11:40:41;20.40;;;13.30;;
7383;SDS011;3733;47.994;8.820;2023-05-16T11:43:08;23.63;;;14.03;;
7383;SDS011;3733;47.994;8.820;2023-05-16T11:45:33;23.97;;;14.30;;
7383;SDS011;3733;47.994;8.820;2023-05-16T11:48:02;20.77;;;14.10;;
7383;SDS011;3733;47.994;8.820;2023-05-16T11:50:28;29.50;;;15.23;;
7383;SDS011;3733;47.994;8.820;2023-05-16T11:52:58;21.53;;;13.83;;
7383;SDS011;3733;47.994;8.820;2023-05-16T11:55:24;21.50;;;14.67;;
7383;SDS011;3733;47.994;8.820;2023-05-16T11:57:52;21.13;;;13.17;;
7383;SDS011;3733;47.994;8.820;2023-05-16T12:00:19;30.40;;;15.60;;
7383;SDS011;3733;47.994;8.820;2023-05-16T12:02:48;24.97;;;15.83;;
7383;SDS011;3733;47.994;8.820;2023-05-16T12:05:15;22.50;;;14.73;;
7383;SDS011;3733;47.994;8.820;2023-05-16T12:07:42;29.53;;;16.03;;
7383;SDS011;3733;47.994;8.820;2023-05-16T12:10:09;22.13;;;15.33;;
7383;SDS011;3733;47.994;8.820;2023-05-16T12:12:36;26.07;;;15.37;;
7383;SDS011;3733;47.994;8.820;2023-05-16T12:15:04;27.00;;;16.03;;
7383;SDS011;3733;47.994;8.820;2023-05-16T12:17:35;33.10;;;18.40;;
7383;SDS011;3733;47.994;8.820;2023-05-16T12:20:03;27.37;;;16.03;;
7383;SDS011;3733;47.994;8.820;2023-05-16T12:22:38;26.30;;;16.27;;
7383;SDS011;3733;47.994;8.820;2023-05-16T12:27:59;26.30;;;15.07;;
7383;SDS011;3733;47.994;8.820;2023-05-16T12:30:27;30.67;;;15.53;;
7383;SDS011;3733;47.994;8.820;2023-05-16T12:35:23;21.00;;;13.40;;
7383;SDS011;3733;47.994;8.820;2023-05-16T12:37:50;21.83;;;14.60;;
7383;SDS011;3733;47.994;8.820;2023-05-16T12:40:16;22.07;;;12.80;;
7383;SDS011;3733;47.994;8.820;2023-05-16T12:42:44;22.83;;;12.57;;
7383;SDS011;3733;47.994;8.820;2023-05-16T12:45:14;21.70;;;12.60;;
7383;SDS011;3733;47.994;8.820;2023-05-16T12:47:40;24.30;;;12.37;;
7383;SDS011;3733;47.994;8.820;2023-05-16T12:50:12;19.03;;;10.57;;
7383;SDS011;3733;47.994;8.820;2023-05-16T12:55:13;17.20;;;10.23;;
7383;SDS011;3733;47.994;8.820;2023-05-16T12:57:40;15.43;;;10.40;;
7383;SDS011;3733;47.994;8.820;2023-05-16T13:00:08;12.03;;;7.77;;
7383;SDS011;3733;47.994;8.820;2023-05-16T13:02:35;11.30;;;8.03;;
7383;SDS011;3733;47.994;8.820;2023-05-16T13:05:01;8.90;;;7.13;;
7383;SDS011;3733;47.994;8.820;2023-05-16T13:07:27;12.13;;;6.60;;
7383;SDS011;3733;47.994;8.820;2023-05-16T13:09:53;9.40;;;6.70;;
7383;SDS011;3733;47.994;8.820;2023-05-16T13:12:19;6.17;;;4.80;;
7383;SDS011;3733;47.994;8.820;2023-05-16T13:14:45;7.03;;;5.00;;
7383;SDS011;3733;47.994;8.820;2023-05-16T13:17:11;5.30;;;4.03;;
7383;SDS011;3733;47.994;8.820;2023-05-16T13:19:37;7.37;;;5.10;;
7383;SDS011;3733;47.994;8.820;2023-05-16T13:22:02;5.63;;;4.70;;
7383;SDS011;3733;47.994;8.820;2023-05-16T13:24:28;7.40;;;6.57;;
7383;SDS011;3733;47.994;8.820;2023-05-16T13:26:54;3.50;;;3.13;;
7383;SDS011;3733;47.994;8.820;2023-05-16T13:29:20;4.90;;;4.43;;
7383;SDS011;3733;47.994;8.820;2023-05-16T13:31:45;4.40;;;2.73;;
7383;SDS011;3733;47.994;8.820;2023-05-16T13:34:11;3.10;;;2.80;;
7383;SDS011;3733;47.994;8.820;2023-05-16T13:36:36;5.00;;;3.90;;
7383;SDS011;3733;47.994;8.820;2023-05-16T13:39:02;5.20;;;3.80;;
7383;SDS011;3733;47.994;8.820;2023-05-16T13:41:28;3.90;;;3.40;;
7383;SDS011;3733;47.994;8.820;2023-05-16T13:43:53;5.00;;;3.90;;
7383;SDS011;3733;47.994;8.820;2023-05-16T13:46:19;6.97;;;3.87;;
7383;SDS011;3733;47.994;8.820;2023-05-16T13:48:45;4.33;;;3.80;;
7383;SDS011;3733;47.994;8.820;2023-05-16T13:51:10;4.50;;;3.57;;
7383;SDS011;3733;47.994;8.820;2023-05-16T13:53:37;6.93;;;3.60;;
7383;SDS011;3733;47.994;8.820;2023-05-16T13:56:03;4.40;;;3.63;;
7383;SDS011;3733;47.994;8.820;2023-05-16T13:58:29;5.90;;;3.70;;
7383;SDS011;3733;47.994;8.820;2023-05-16T14:00:55;3.60;;;3.30;;
7383;SDS011;3733;47.994;8.820;2023-05-16T14:03:20;4.23;;;3.03;;
7383;SDS011;3733;47.994;8.820;2023-05-16T14:05:47;4.40;;;3.83;;
7383;SDS011;3733;47.994;8.820;2023-05-16T14:08:13;4.50;;;3.33;;
7383;SDS011;3733;47.994;8.820;2023-05-16T14:10:39;3.80;;;2.47;;
7383;SDS011;3733;47.994;8.820;2023-05-16T14:13:04;2.40;;;2.20;;
7383;SDS011;3733;47.994;8.820;2023-05-16T14:15:30;3.00;;;2.30;;
7383;SDS011;3733;47.994;8.820;2023-05-16T14:17:56;4.10;;;2.10;;
7383;SDS011;3733;47.994;8.820;2023-05-16T14:20:21;1.83;;;1.70;;
7383;SDS011;3733;47.994;8.820;2023-05-16T14:22:47;1.97;;;1.77;;
7383;SDS011;3733;47.994;8.820;2023-05-16T14:25:12;3.20;;;1.60;;
7383;SDS011;3733;47.994;8.820;2023-05-16T14:27:38;2.63;;;2.00;;
7383;SDS011;3733;47.994;8.820;2023-05-16T14:30:04;1.80;;;1.70;;
7383;SDS011;3733;47.994;8.820;2023-05-16T14:32:30;3.53;;;2.37;;
7383;SDS011;3733;47.994;8.820;2023-05-16T14:34:56;2.20;;;2.00;;
7383;SDS011;3733;47.994;8.820;2023-05-16T14:37:21;2.87;;;2.20;;
7383;SDS011;3733;47.994;8.820;2023-05-16T14:39:47;1.83;;;1.73;;
7383;SDS011;3733;47.994;8.820;2023-05-16T14:42:14;1.70;;;1.60;;
7383;SDS011;3733;47.994;8.820;2023-05-16T14:44:40;3.50;;;1.70;;
7383;SDS011;3733;47.994;8.820;2023-05-16T14:47:06;1.60;;;1.50;;
7383;SDS011;3733;47.994;8.820;2023-05-16T14:49:31;1.53;;;1.43;;
7383;SDS011;3733;47.994;8.820;2023-05-16T14:51:57;1.20;;;1.20;;
7383;SDS011;3733;47.994;8.820;2023-05-16T14:54:23;1.10;;;1.10;;
7383;SDS011;3733;47.994;8.820;2023-05-16T14:56:48;1.73;;;1.63;;
7383;SDS011;3733;47.994;8.820;2023-05-16T14:59:14;1.40;;;1.30;;
7383;SDS011;3733;47.994;8.820;2023-05-16T15:01:40;1.53;;;1.43;;
7383;SDS011;3733;47.994;8.820;2023-05-16T15:04:06;1.40;;;1.30;;
7383;SDS011;3733;47.994;8.820;2023-05-16T15:06:31;1.40;;;1.30;;
7383;SDS011;3733;47.994;8.820;2023-05-16T15:08:57;3.70;;;1.60;;
7383;SDS011;3733;47.994;8.820;2023-05-16T15:11:22;1.60;;;1.50;;
7383;SDS011;3733;47.994;8.820;2023-05-16T15:13:48;2.57;;;2.37;;
7383;SDS011;3733;47.994;8.820;2023-05-16T15:16:14;5.67;;;3.37;;
7383;SDS011;3733;47.994;8.820;2023-05-16T15:18:40;5.53;;;3.20;;
7383;SDS011;3733;47.994;8.820;2023-05-16T15:21:05;3.77;;;3.37;;
7383;SDS011;3733;47.994;8.820;2023-05-16T15:23:31;4.30;;;3.33;;